sensor_id;sensor_type;location;lat;lon;timestamp;temperature;humidity
546;DHT22;259;53.304;9.816;2023-04-01T00:00:30;17.50;67.90
546;DHT22;259;53.304;9.816;2023-04-01T00:02:56;17.50;67.90
546;DHT22;259;53.304;9.816;2023-04-01T00:05:22;17.50;67.90
546;DHT22;259;53.304;9.816;2023-04-01T00:07:49;17.50;67.90
546;DHT22;259;53.304;9.816;2023-04-01T00:10:15;17.50;68.00
546;DHT22;259;53.304;9.816;2023-04-01T00:12:42;17.50;68.10
546;DHT22;259;53.304;9.816;2023-04-01T00:15:11;17.40;68.00
546;DHT22;259;53.304;9.816;2023-04-01T00:17:37;17.40;68.00
546;DHT22;259;53.304;9.816;2023-04-01T00:20:04;17.40;68.10
546;DHT22;259;53.304;9.816;2023-04-01T00:22:31;17.40;68.10
546;DHT22;259;53.304;9.816;2023-04-01T00:24:56;17.40;68.10
546;DHT22;259;53.304;9.816;2023-04-01T00:27:22;17.40;68.10
546;DHT22;259;53.304;9.816;2023-04-01T00:29:48;17.30;68.10
546;DHT22;259;53.304;9.816;2023-04-01T00:32:14;17.30;68.10
546;DHT22;259;53.304;9.816;2023-04-01T00:34:40;17.30;68.10
546;DHT22;259;53.304;9.816;2023-04-01T00:37:07;17.30;68.20
546;DHT22;259;53.304;9.816;2023-04-01T00:39:34;17.30;68.20
546;DHT22;259;53.304;9.816;2023-04-01T00:42:02;17.20;68.10
546;DHT22;259;53.304;9.816;2023-04-01T00:44:31;17.20;68.20
546;DHT22;259;53.304;9.816;2023-04-01T00:46:59;17.20;68.30
546;DHT22;259;53.304;9.816;2023-04-01T00:49:29;17.20;68.30
546;DHT22;259;53.304;9.816;2023-04-01T00:52:00;17.20;68.30
546;DHT22;259;53.304;9.816;2023-04-01T00:54:28;17.20;68.40
546;DHT22;259;53.304;9.816;2023-04-01T00:57:01;17.20;68.40
546;DHT22;259;53.304;9.816;2023-04-01T00:59:33;17.10;68.30
546;DHT22;259;53.304;9.816;2023-04-01T01:02:12;17.10;68.40
546;DHT22;259;53.304;9.816;2023-04-01T01:04:38;17.10;68.50
546;DHT22;259;53.304;9.816;2023-04-01T01:12:34;17.00;68.50
546;DHT22;259;53.304;9.816;2023-04-01T01:17:44;17.00;68.60
546;DHT22;259;53.304;9.816;2023-04-01T01:21:05;17.00;68.60
546;DHT22;259;53.304;9.816;2023-04-01T01:26:58;17.00;68.70
546;DHT22;259;53.304;9.816;2023-04-01T01:29:45;16.90;68.70
546;DHT22;259;53.304;9.816;2023-04-01T01:35:46;16.90;68.80
546;DHT22;259;53.304;9.816;2023-04-01T01:38:16;16.90;68.90
546;DHT22;259;53.304;9.816;2023-04-01T01:40:46;16.90;69.10
546;DHT22;259;53.304;9.816;2023-04-01T01:43:16;16.80;69.00
546;DHT22;259;53.304;9.816;2023-04-01T01:45:52;16.80;69.10
546;DHT22;259;53.304;9.816;2023-04-01T01:48:20;16.80;69.10
546;DHT22;259;53.304;9.816;2023-04-01T01:50:48;16.80;69.10
546;DHT22;259;53.304;9.816;2023-04-01T01:53:14;16.80;69.00
546;DHT22;259;53.304;9.816;2023-04-01T01:55:43;16.80;68.90
546;DHT22;259;53.304;9.816;2023-04-01T01:58:35;16.80;69.00
546;DHT22;259;53.304;9.816;2023-04-01T02:01:13;16.80;68.90
546;DHT22;259;53.304;9.816;2023-04-01T02:03:42;16.80;68.90
546;DHT22;259;53.304;9.816;2023-04-01T02:06:11;16.70;68.90
546;DHT22;259;53.304;9.816;2023-04-01T02:08:47;16.70;68.90
546;DHT22;259;53.304;9.816;2023-04-01T02:11:17;16.70;68.90
546;DHT22;259;53.304;9.816;2023-04-01T02:14:01;16.70;68.90
546;DHT22;259;53.304;9.816;2023-04-01T02:16:53;16.70;68.90
546;DHT22;259;53.304;9.816;2023-04-01T02:19:37;16.70;69.00
546;DHT22;259;53.304;9.816;2023-04-01T02:22:09;16.60;68.90
546;DHT22;259;53.304;9.816;2023-04-01T02:24:38;16.60;69.00
546;DHT22;259;53.304;9.816;2023-04-01T02:27:05;16.60;69.00
546;DHT22;259;53.304;9.816;2023-04-01T02:29:32;16.60;69.10
546;DHT22;259;53.304;9.816;2023-04-01T02:31:58;16.60;69.10
546;DHT22;259;53.304;9.816;2023-04-01T02:34:25;16.60;69.10
546;DHT22;259;53.304;9.816;2023-04-01T02:36:51;16.60;69.10
546;DHT22;259;53.304;9.816;2023-04-01T02:39:17;16.60;69.20
546;DHT22;259;53.304;9.816;2023-04-01T02:41:44;16.50;69.10
546;DHT22;259;53.304;9.816;2023-04-01T02:44:12;16.50;69.10
546;DHT22;259;53.304;9.816;2023-04-01T02:46:39;16.50;69.20
546;DHT22;259;53.304;9.816;2023-04-01T02:49:06;16.50;69.20
546;DHT22;259;53.304;9.816;2023-04-01T02:51:32;16.50;69.30
546;DHT22;259;53.304;9.816;2023-04-01T02:53:59;16.50;69.30
546;DHT22;259;53.304;9.816;2023-04-01T02:56:24;16.50;69.40
546;DHT22;259;53.304;9.816;2023-04-01T02:58:51;16.40;69.30
546;DHT22;259;53.304;9.816;2023-04-01T03:01:18;16.40;69.30
546;DHT22;259;53.304;9.816;2023-04-01T03:03:43;16.40;69.30
546;DHT22;259;53.304;9.816;2023-04-01T03:06:12;16.40;69.30
546;DHT22;259;53.304;9.816;2023-04-01T03:08:39;16.40;69.40
546;DHT22;259;53.304;9.816;2023-04-01T03:11:05;16.40;69.40
546;DHT22;259;53.304;9.816;2023-04-01T03:13:31;16.40;69.40
546;DHT22;259;53.304;9.816;2023-04-01T03:15:57;16.30;69.40
546;DHT22;259;53.304;9.816;2023-04-01T03:18:23;16.30;69.40
546;DHT22;259;53.304;9.816;2023-04-01T03:20:48;16.30;69.50
546;DHT22;259;53.304;9.816;2023-04-01T03:23:14;16.30;69.50
546;DHT22;259;53.304;9.816;2023-04-01T03:25:42;16.30;69.50
546;DHT22;259;53.304;9.816;2023-04-01T03:28:08;16.30;69.60
546;DHT22;259;53.304;9.816;2023-04-01T03:30:34;16.20;69.50
546;DHT22;259;53.304;9.816;2023-04-01T03:33:00;16.20;69.50
546;DHT22;259;53.304;9.816;2023-04-01T03:35:26;16.20;69.60
546;DHT22;259;53.304;9.816;2023-04-01T03:37:52;16.20;69.50
546;DHT22;259;53.304;9.816;2023-04-01T03:40:18;16.20;69.60
546;DHT22;259;53.304;9.816;2023-04-01T03:42:44;16.20;69.60
546;DHT22;259;53.304;9.816;2023-04-01T03:45:10;16.20;69.70
546;DHT22;259;53.304;9.816;2023-04-01T03:47:37;16.20;69.70
546;DHT22;259;53.304;9.816;2023-04-01T03:50:06;16.20;69.70
546;DHT22;259;53.304;9.816;2023-04-01T03:52:33;16.10;69.80
546;DHT22;259;53.304;9.816;2023-04-01T03:55:00;16.10;69.90
546;DHT22;259;53.304;9.816;2023-04-01T03:57:27;16.10;70.00
546;DHT22;259;53.304;9.816;2023-04-01T03:59:52;16.10;70.00
546;DHT22;259;53.304;9.816;2023-04-01T04:02:19;16.10;70.10
546;DHT22;259;53.304;9.816;2023-04-01T04:04:45;16.10;70.00
546;DHT22;259;53.304;9.816;2023-04-01T04:07:12;16.10;69.90
546;DHT22;259;53.304;9.816;2023-04-01T04:09:38;16.10;69.90
546;DHT22;259;53.304;9.816;2023-04-01T04:12:04;16.00;69.80
546;DHT22;259;53.304;9.816;2023-04-01T04:14:31;16.00;69.80
546;DHT22;259;53.304;9.816;2023-04-01T04:16:57;16.00;69.80
546;DHT22;259;53.304;9.816;2023-04-01T04:19:23;16.00;69.80
546;DHT22;259;53.304;9.816;2023-04-01T04:21:49;16.00;69.80
546;DHT22;259;53.304;9.816;2023-04-01T04:24:14;16.00;69.80
546;DHT22;259;53.304;9.816;2023-04-01T04:26:40;16.00;69.80
546;DHT22;259;53.304;9.816;2023-04-01T04:29:06;16.00;69.90
546;DHT22;259;53.304;9.816;2023-04-01T04:31:32;16.00;69.90
546;DHT22;259;53.304;9.816;2023-04-01T04:33:59;16.00;69.90
546;DHT22;259;53.304;9.816;2023-04-01T04:36:26;16.00;70.00
546;DHT22;259;53.304;9.816;2023-04-01T04:38:52;15.90;69.90
546;DHT22;259;53.304;9.816;2023-04-01T04:41:18;15.90;69.80
546;DHT22;259;53.304;9.816;2023-04-01T04:43:53;15.90;69.90
546;DHT22;259;53.304;9.816;2023-04-01T04:46:20;15.90;69.90
546;DHT22;259;53.304;9.816;2023-04-01T04:48:46;15.90;70.00
546;DHT22;259;53.304;9.816;2023-04-01T04:51:17;15.90;70.00
546;DHT22;259;53.304;9.816;2023-04-01T04:53:44;15.90;70.00
546;DHT22;259;53.304;9.816;2023-04-01T04:56:10;15.90;70.00
546;DHT22;259;53.304;9.816;2023-04-01T04:58:37;15.80;69.90
546;DHT22;259;53.304;9.816;2023-04-01T05:01:11;15.80;70.00
546;DHT22;259;53.304;9.816;2023-04-01T05:03:38;15.80;70.00
546;DHT22;259;53.304;9.816;2023-04-01T05:06:05;15.80;70.00
546;DHT22;259;53.304;9.816;2023-04-01T05:08:31;15.80;70.00
546;DHT22;259;53.304;9.816;2023-04-01T05:10:58;15.80;70.10
546;DHT22;259;53.304;9.816;2023-04-01T05:13:24;15.80;70.10
546;DHT22;259;53.304;9.816;2023-04-01T05:15:50;15.80;70.20
546;DHT22;259;53.304;9.816;2023-04-01T05:18:16;15.70;70.00
546;DHT22;259;53.304;9.816;2023-04-01T05:20:50;15.70;70.10
546;DHT22;259;53.304;9.816;2023-04-01T05:23:18;15.70;70.10
546;DHT22;259;53.304;9.816;2023-04-01T05:25:47;15.70;70.20
546;DHT22;259;53.304;9.816;2023-04-01T05:28:14;15.70;70.20
546;DHT22;259;53.304;9.816;2023-04-01T05:30:41;15.70;70.30
546;DHT22;259;53.304;9.816;2023-04-01T05:33:08;15.70;70.30
546;DHT22;259;53.304;9.816;2023-04-01T05:35:34;15.70;70.30
546;DHT22;259;53.304;9.816;2023-04-01T05:37:59;15.70;70.30
546;DHT22;259;53.304;9.816;2023-04-01T05:40:25;15.70;70.30
546;DHT22;259;53.304;9.816;2023-04-01T05:42:51;15.70;70.30
546;DHT22;259;53.304;9.816;2023-04-01T05:45:16;15.70;70.30
546;DHT22;259;53.304;9.816;2023-04-01T05:47:42;15.70;70.40
546;DHT22;259;53.304;9.816;2023-04-01T05:50:09;15.60;70.30
546;DHT22;259;53.304;9.816;2023-04-01T05:52:36;15.60;70.30
546;DHT22;259;53.304;9.816;2023-04-01T05:55:03;15.60;70.40
546;DHT22;259;53.304;9.816;2023-04-01T05:57:29;15.60;70.30
546;DHT22;259;53.304;9.816;2023-04-01T05:59:55;15.60;70.40
546;DHT22;259;53.304;9.816;2023-04-01T06:02:20;15.60;70.40
546;DHT22;259;53.304;9.816;2023-04-01T06:04:46;15.60;70.40
546;DHT22;259;53.304;9.816;2023-04-01T06:07:13;15.50;70.30
546;DHT22;259;53.304;9.816;2023-04-01T06:09:40;15.50;70.40
546;DHT22;259;53.304;9.816;2023-04-01T06:12:40;15.50;70.40
546;DHT22;259;53.304;9.816;2023-04-01T06:15:38;15.50;70.50
546;DHT22;259;53.304;9.816;2023-04-01T06:27:57;15.40;70.60
546;DHT22;259;53.304;9.816;2023-04-01T06:39:35;15.40;70.60
546;DHT22;259;53.304;9.816;2023-04-01T06:42:34;15.40;70.70
546;DHT22;259;53.304;9.816;2023-04-01T06:56:29;15.40;70.80
546;DHT22;259;53.304;9.816;2023-04-01T06:59:02;15.30;70.70
546;DHT22;259;53.304;9.816;2023-04-01T07:01:38;15.30;70.70
546;DHT22;259;53.304;9.816;2023-04-01T07:04:16;15.30;70.80
546;DHT22;259;53.304;9.816;2023-04-01T07:07:21;15.30;71.50
546;DHT22;259;53.304;9.816;2023-04-01T07:09:55;15.30;70.70
546;DHT22;259;53.304;9.816;2023-04-01T07:15:19;15.30;70.80
546;DHT22;259;53.304;9.816;2023-04-01T07:17:52;15.30;70.80
546;DHT22;259;53.304;9.816;2023-04-01T07:20:26;15.30;70.90
546;DHT22;259;53.304;9.816;2023-04-01T07:23:00;15.30;70.90
546;DHT22;259;53.304;9.816;2023-04-01T07:25:31;15.30;70.90
546;DHT22;259;53.304;9.816;2023-04-01T07:28:04;15.30;71.00
546;DHT22;259;53.304;9.816;2023-04-01T07:34:09;15.30;70.90
546;DHT22;259;53.304;9.816;2023-04-01T07:37:03;15.20;70.80
546;DHT22;259;53.304;9.816;2023-04-01T07:43:19;15.20;70.90
546;DHT22;259;53.304;9.816;2023-04-01T07:45:51;15.20;70.90
546;DHT22;259;53.304;9.816;2023-04-01T07:57:38;15.20;71.90
546;DHT22;259;53.304;9.816;2023-04-01T08:03:12;15.20;71.30
546;DHT22;259;53.304;9.816;2023-04-01T08:08:58;15.10;71.10
546;DHT22;259;53.304;9.816;2023-04-01T08:11:53;15.10;71.10
546;DHT22;259;53.304;9.816;2023-04-01T08:14:53;15.10;71.20
546;DHT22;259;53.304;9.816;2023-04-01T08:20:48;15.10;71.30
546;DHT22;259;53.304;9.816;2023-04-01T08:23:22;15.10;71.30
546;DHT22;259;53.304;9.816;2023-04-01T08:28:40;15.10;71.40
546;DHT22;259;53.304;9.816;2023-04-01T08:34:14;15.00;71.20
546;DHT22;259;53.304;9.816;2023-04-01T08:36:58;15.10;71.40
546;DHT22;259;53.304;9.816;2023-04-01T08:39:35;15.00;71.30
546;DHT22;259;53.304;9.816;2023-04-01T08:56:20;15.00;71.70
546;DHT22;259;53.304;9.816;2023-04-01T09:02:50;15.00;71.70
546;DHT22;259;53.304;9.816;2023-04-01T09:20:08;14.90;71.70
546;DHT22;259;53.304;9.816;2023-04-01T09:29:17;14.90;72.00
546;DHT22;259;53.304;9.816;2023-04-01T09:34:51;14.80;71.90
546;DHT22;259;53.304;9.816;2023-04-01T09:40:37;14.80;72.00
546;DHT22;259;53.304;9.816;2023-04-01T09:48:59;14.80;71.90
546;DHT22;259;53.304;9.816;2023-04-01T09:52:09;14.80;72.00
546;DHT22;259;53.304;9.816;2023-04-01T10:07:16;14.80;72.00
546;DHT22;259;53.304;9.816;2023-04-01T10:28:22;14.70;72.00
546;DHT22;259;53.304;9.816;2023-04-01T10:34:48;14.70;72.10
546;DHT22;259;53.304;9.816;2023-04-01T10:58:21;14.60;72.00
546;DHT22;259;53.304;9.816;2023-04-01T11:04:17;14.60;72.00
546;DHT22;259;53.304;9.816;2023-04-01T11:07:45;14.60;72.10
546;DHT22;259;53.304;9.816;2023-04-01T11:22:25;14.50;72.00
546;DHT22;259;53.304;9.816;2023-04-01T11:28:18;14.50;72.20
546;DHT22;259;53.304;9.816;2023-04-01T11:37:15;14.50;73.20
546;DHT22;259;53.304;9.816;2023-04-01T11:39:59;14.40;72.50
546;DHT22;259;53.304;9.816;2023-04-01T11:46:21;14.40;72.40
546;DHT22;259;53.304;9.816;2023-04-01T11:52:08;14.40;72.30
546;DHT22;259;53.304;9.816;2023-04-01T11:55:02;14.40;72.20
546;DHT22;259;53.304;9.816;2023-04-01T12:06:02;14.40;72.10
546;DHT22;259;53.304;9.816;2023-04-01T12:08:59;14.40;72.10
546;DHT22;259;53.304;9.816;2023-04-01T12:11:34;14.40;72.20
546;DHT22;259;53.304;9.816;2023-04-01T12:17:02;14.40;72.10
546;DHT22;259;53.304;9.816;2023-04-01T12:22:27;14.40;72.10
546;DHT22;259;53.304;9.816;2023-04-01T12:40:01;14.30;71.90
546;DHT22;259;53.304;9.816;2023-04-01T12:45:35;14.30;71.90
546;DHT22;259;53.304;9.816;2023-04-01T13:03:26;14.30;72.00
546;DHT22;259;53.304;9.816;2023-04-01T13:12:20;14.20;71.90
546;DHT22;259;53.304;9.816;2023-04-01T13:27:21;14.20;72.20
546;DHT22;259;53.304;9.816;2023-04-01T13:30:10;14.10;73.30
546;DHT22;259;53.304;9.816;2023-04-01T13:44:02;14.00;73.10
546;DHT22;259;53.304;9.816;2023-04-01T13:49:45;14.00;72.90
546;DHT22;259;53.304;9.816;2023-04-01T13:55:35;14.00;72.70
546;DHT22;259;53.304;9.816;2023-04-01T14:01:50;14.00;72.80
546;DHT22;259;53.304;9.816;2023-04-01T14:13:12;13.90;72.60
546;DHT22;259;53.304;9.816;2023-04-01T14:18:53;14.00;72.70
546;DHT22;259;53.304;9.816;2023-04-01T14:21:41;13.90;72.60
546;DHT22;259;53.304;9.816;2023-04-01T14:35:57;13.80;72.60
546;DHT22;259;53.304;9.816;2023-04-01T14:39:00;13.90;72.80
546;DHT22;259;53.304;9.816;2023-04-01T14:42:15;13.80;72.70
546;DHT22;259;53.304;9.816;2023-04-01T14:45:02;13.80;72.60
546;DHT22;259;53.304;9.816;2023-04-01T14:47:51;13.80;72.50
546;DHT22;259;53.304;9.816;2023-04-01T14:50:25;13.80;72.50
546;DHT22;259;53.304;9.816;2023-04-01T14:55:44;13.80;72.40
546;DHT22;259;53.304;9.816;2023-04-01T14:58:18;13.80;73.10
546;DHT22;259;53.304;9.816;2023-04-01T15:03:40;13.80;72.20
546;DHT22;259;53.304;9.816;2023-04-01T15:12:52;13.70;72.10
546;DHT22;259;53.304;9.816;2023-04-01T15:24:40;13.70;72.10
546;DHT22;259;53.304;9.816;2023-04-01T15:31:16;13.70;72.00
546;DHT22;259;53.304;9.816;2023-04-01T15:39:13;13.70;72.10
546;DHT22;259;53.304;9.816;2023-04-01T15:42:07;13.70;72.10
546;DHT22;259;53.304;9.816;2023-04-01T15:50:26;13.60;72.00
546;DHT22;259;53.304;9.816;2023-04-01T15:53:22;13.60;72.00
546;DHT22;259;53.304;9.816;2023-04-01T16:02:18;13.60;72.00
546;DHT22;259;53.304;9.816;2023-04-01T16:09:43;13.60;72.00
546;DHT22;259;53.304;9.816;2023-04-01T16:15:14;13.50;71.80
546;DHT22;259;53.304;9.816;2023-04-01T16:26:20;13.50;71.90
546;DHT22;259;53.304;9.816;2023-04-01T16:28:57;13.50;71.90
546;DHT22;259;53.304;9.816;2023-04-01T16:34:43;13.40;71.80
546;DHT22;259;53.304;9.816;2023-04-01T16:37:21;13.40;71.70
546;DHT22;259;53.304;9.816;2023-04-01T16:42:53;13.40;71.80
546;DHT22;259;53.304;9.816;2023-04-01T16:45:52;13.40;71.70
546;DHT22;259;53.304;9.816;2023-04-01T16:51:18;13.40;71.80
546;DHT22;259;53.304;9.816;2023-04-01T16:53:52;13.40;71.80
546;DHT22;259;53.304;9.816;2023-04-01T16:56:38;13.40;71.80
546;DHT22;259;53.304;9.816;2023-04-01T16:59:35;13.40;71.70
546;DHT22;259;53.304;9.816;2023-04-01T17:05:00;13.30;71.70
546;DHT22;259;53.304;9.816;2023-04-01T17:10:37;13.30;71.70
546;DHT22;259;53.304;9.816;2023-04-01T17:14:08;13.30;71.70
546;DHT22;259;53.304;9.816;2023-04-01T17:19:35;13.30;71.70
546;DHT22;259;53.304;9.816;2023-04-01T17:25:30;13.20;71.70
546;DHT22;259;53.304;9.816;2023-04-01T17:43:25;13.20;71.60
546;DHT22;259;53.304;9.816;2023-04-01T17:45:58;13.10;71.40
546;DHT22;259;53.304;9.816;2023-04-01T17:48:45;13.10;71.50
546;DHT22;259;53.304;9.816;2023-04-01T18:00:33;13.10;71.50
546;DHT22;259;53.304;9.816;2023-04-01T18:03:29;13.00;71.20
546;DHT22;259;53.304;9.816;2023-04-01T18:20:41;13.00;70.80
546;DHT22;259;53.304;9.816;2023-04-01T18:25:48;13.00;71.00
546;DHT22;259;53.304;9.816;2023-04-01T18:28:49;13.00;70.90
546;DHT22;259;53.304;9.816;2023-04-01T18:31:24;12.90;70.70
546;DHT22;259;53.304;9.816;2023-04-01T18:34:07;12.90;70.70
546;DHT22;259;53.304;9.816;2023-04-01T18:37:00;12.90;70.80
546;DHT22;259;53.304;9.816;2023-04-01T18:39:43;12.90;70.80
546;DHT22;259;53.304;9.816;2023-04-01T18:45:10;12.90;70.80
546;DHT22;259;53.304;9.816;2023-04-01T18:48:15;12.90;70.70
546;DHT22;259;53.304;9.816;2023-04-01T18:51:12;12.90;70.80
546;DHT22;259;53.304;9.816;2023-04-01T18:54:02;12.80;70.70
546;DHT22;259;53.304;9.816;2023-04-01T18:56:35;12.80;70.70
546;DHT22;259;53.304;9.816;2023-04-01T18:59:28;12.80;70.60
546;DHT22;259;53.304;9.816;2023-04-01T19:05:20;12.80;70.70
546;DHT22;259;53.304;9.816;2023-04-01T19:07:52;12.80;70.50
546;DHT22;259;53.304;9.816;2023-04-01T19:21:57;12.60;70.40
546;DHT22;259;53.304;9.816;2023-04-01T19:27:42;12.70;70.50
546;DHT22;259;53.304;9.816;2023-04-01T19:30:42;12.70;70.50
546;DHT22;259;53.304;9.816;2023-04-01T19:37:01;12.70;71.30
546;DHT22;259;53.304;9.816;2023-04-01T19:42:24;12.60;70.40
546;DHT22;259;53.304;9.816;2023-04-01T19:45:22;12.60;70.40
546;DHT22;259;53.304;9.816;2023-04-01T19:50:34;12.60;70.40
546;DHT22;259;53.304;9.816;2023-04-01T19:53:58;12.60;70.50
546;DHT22;259;53.304;9.816;2023-04-01T19:56:46;12.60;70.50
546;DHT22;259;53.304;9.816;2023-04-01T20:08:45;12.50;70.30
546;DHT22;259;53.304;9.816;2023-04-01T20:14:27;12.50;70.20
546;DHT22;259;53.304;9.816;2023-04-01T20:17:02;12.50;70.30
546;DHT22;259;53.304;9.816;2023-04-01T20:25:32;12.40;70.20
546;DHT22;259;53.304;9.816;2023-04-01T20:28:14;12.40;70.00
546;DHT22;259;53.304;9.816;2023-04-01T20:31:06;12.40;70.20
546;DHT22;259;53.304;9.816;2023-04-01T20:36:51;12.40;70.10
546;DHT22;259;53.304;9.816;2023-04-01T20:46:19;12.30;69.90
546;DHT22;259;53.304;9.816;2023-04-01T20:51:35;12.30;69.90
546;DHT22;259;53.304;9.816;2023-04-01T21:06:14;12.20;69.70
546;DHT22;259;53.304;9.816;2023-04-01T21:09:14;12.20;69.70
546;DHT22;259;53.304;9.816;2023-04-01T21:15:21;12.20;69.60
546;DHT22;259;53.304;9.816;2023-04-01T21:18:32;12.20;69.70
546;DHT22;259;53.304;9.816;2023-04-01T21:21:40;12.10;69.60
546;DHT22;259;53.304;9.816;2023-04-01T21:36:11;12.00;69.50
546;DHT22;259;53.304;9.816;2023-04-01T21:50:42;12.00;69.90
546;DHT22;259;53.304;9.816;2023-04-01T21:59:56;11.90;69.80
546;DHT22;259;53.304;9.816;2023-04-01T22:03:22;11.90;69.70
546;DHT22;259;53.304;9.816;2023-04-01T22:06:22;11.90;69.60
546;DHT22;259;53.304;9.816;2023-04-01T22:09:51;11.90;69.50
546;DHT22;259;53.304;9.816;2023-04-01T22:14:42;11.90;69.30
546;DHT22;259;53.304;9.816;2023-04-01T22:20:28;11.80;69.20
546;DHT22;259;53.304;9.816;2023-04-01T22:23:19;11.80;69.10
546;DHT22;259;53.304;9.816;2023-04-01T22:28:31;11.80;69.20
546;DHT22;259;53.304;9.816;2023-04-01T22:31:04;11.80;69.20
546;DHT22;259;53.304;9.816;2023-04-01T22:33:38;11.80;69.10
546;DHT22;259;53.304;9.816;2023-04-01T22:36:19;11.80;69.10
546;DHT22;259;53.304;9.816;2023-04-01T22:42:28;11.70;69.10
546;DHT22;259;53.304;9.816;2023-04-01T22:50:32;11.70;69.10
546;DHT22;259;53.304;9.816;2023-04-01T22:53:08;11.70;69.00
546;DHT22;259;53.304;9.816;2023-04-01T22:55:46;11.70;69.00
546;DHT22;259;53.304;9.816;2023-04-01T22:58:18;11.70;69.00
546;DHT22;259;53.304;9.816;2023-04-01T23:00:54;11.60;68.80
546;DHT22;259;53.304;9.816;2023-04-01T23:03:29;11.60;68.90
546;DHT22;259;53.304;9.816;2023-04-01T23:05:59;11.60;68.80
546;DHT22;259;53.304;9.816;2023-04-01T23:11:37;11.60;68.80
546;DHT22;259;53.304;9.816;2023-04-01T23:17:16;11.60;68.80
546;DHT22;259;53.304;9.816;2023-04-01T23:20:14;11.50;68.60
546;DHT22;259;53.304;9.816;2023-04-01T23:29:00;11.50;68.80
546;DHT22;259;53.304;9.816;2023-04-01T23:31:32;11.50;68.80
546;DHT22;259;53.304;9.816;2023-04-01T23:34:17;11.50;68.80
546;DHT22;259;53.304;9.816;2023-04-01T23:36:50;11.50;68.80
546;DHT22;259;53.304;9.816;2023-04-01T23:39:22;11.40;68.70
546;DHT22;259;53.304;9.816;2023-04-01T23:42:02;11.40;68.60
546;DHT22;259;53.304;9.816;2023-04-01T23:44:31;11.40;68.80
546;DHT22;259;53.304;9.816;2023-04-01T23:46:59;11.40;68.70
546;DHT22;259;53.304;9.816;2023-04-01T23:49:37;11.40;68.70
546;DHT22;259;53.304;9.816;2023-04-01T23:52:23;11.40;68.70
546;DHT22;259;53.304;9.816;2023-04-01T23:57:40;11.30;68.70
